createdAt,value
2022-11-25T00:01:18.879Z,3.33
2022-11-25T00:03:45.956Z,3.40
2022-11-25T00:06:18.692Z,3.20
2022-11-25T00:08:47.627Z,3.13
2022-11-25T00:11:14.605Z,3.43
2022-11-25T00:13:41.945Z,3.53
2022-11-25T00:16:11.658Z,3.43
2022-11-25T00:18:38.627Z,4.97
2022-11-25T00:21:07.305Z,4.13
2022-11-25T00:23:33.674Z,4.40
2022-11-25T00:26:13.785Z,4.03
2022-11-25T00:28:41.878Z,3.67
2022-11-25T00:31:12.752Z,3.63
2022-11-25T00:33:40.006Z,2.90
2022-11-25T00:36:12.454Z,2.43
2022-11-25T00:38:38.854Z,2.90
2022-11-25T00:41:23.972Z,2.83
2022-11-25T00:44:08.790Z,3.23
2022-11-25T00:46:35.105Z,2.73
2022-11-25T00:49:01.416Z,2.90
2022-11-25T00:51:27.718Z,3.43
2022-11-25T00:53:58.753Z,3.30
2022-11-25T00:56:25.834Z,2.97
2022-11-25T00:58:53.639Z,2.63
2022-11-25T01:01:20.154Z,3.33
2022-11-25T01:03:49.082Z,3.30
2022-11-25T01:06:15.406Z,3.13
2022-11-25T01:08:41.759Z,4.00
2022-11-25T01:11:11.340Z,3.10
2022-11-25T01:13:39.358Z,2.70
2022-11-25T01:16:07.586Z,3.17
2022-11-25T01:18:34.515Z,3.83
2022-11-25T01:21:12.914Z,3.77
2022-11-25T01:23:39.913Z,2.60
2022-11-25T01:26:10.139Z,3.67
2022-11-25T01:28:36.553Z,3.20
2022-11-25T01:31:06.255Z,2.87
2022-11-25T01:33:34.399Z,3.80
2022-11-25T01:36:10.019Z,3.17
2022-11-25T01:38:36.695Z,4.17
2022-11-25T01:41:05.719Z,3.10
2022-11-25T01:43:32.170Z,4.83
2022-11-25T01:46:13.662Z,4.57
2022-11-25T01:48:47.603Z,4.27
2022-11-25T01:51:26.063Z,4.27
2022-11-25T01:53:56.042Z,3.70
2022-11-25T01:56:22.671Z,3.87
2022-11-25T01:58:49.666Z,3.70
2022-11-25T02:01:17.672Z,3.00
2022-11-25T02:03:48.549Z,3.70
2022-11-25T02:06:28.672Z,3.40
2022-11-25T02:09:08.739Z,3.80
2022-11-25T02:11:38.161Z,3.80
2022-11-25T02:14:05.528Z,5.17
2022-11-25T02:16:31.889Z,6.87
2022-11-25T02:18:58.316Z,5.53
2022-11-25T02:21:31.068Z,4.63
2022-11-25T02:24:14.412Z,4.50
2022-11-25T02:26:43.721Z,3.93
2022-11-25T02:29:10.218Z,4.60
2022-11-25T02:31:36.629Z,4.73
2022-11-25T02:34:02.982Z,4.33
2022-11-25T02:36:29.325Z,3.50
2022-11-25T02:39:00.670Z,4.17
2022-11-25T02:41:33.306Z,3.73
2022-11-25T02:44:03.701Z,3.20
2022-11-25T02:46:30.811Z,3.20
2022-11-25T02:49:14.558Z,3.50
2022-11-25T02:51:44.620Z,4.13
2022-11-25T02:54:13.108Z,4.23
2022-11-25T02:56:40.272Z,5.03
2022-11-25T02:59:08.117Z,4.47
2022-11-25T03:01:36.103Z,4.10
2022-11-25T03:04:05.628Z,4.10
2022-11-25T03:06:32.142Z,3.43
2022-11-25T03:08:58.634Z,3.87
2022-11-25T03:11:46.390Z,3.80
2022-11-25T03:14:13.913Z,4.00
2022-11-25T03:16:41.870Z,3.90
2022-11-25T03:19:08.462Z,4.63
2022-11-25T03:21:35.162Z,3.70
2022-11-25T03:24:01.482Z,3.43
2022-11-25T03:26:27.821Z,3.70
2022-11-25T03:28:54.648Z,4.70
2022-11-25T03:31:21.166Z,3.70
2022-11-25T03:33:47.880Z,4.93
2022-11-25T03:36:14.632Z,3.77
2022-11-25T03:38:41.035Z,4.77
2022-11-25T03:41:07.405Z,3.97
2022-11-25T03:43:35.367Z,4.40
2022-11-25T03:46:02.054Z,4.23
2022-11-25T03:48:28.633Z,3.20
2022-11-25T03:50:55.062Z,3.83
2022-11-25T03:53:23.659Z,3.77
2022-11-25T03:55:50.447Z,5.37
2022-11-25T03:58:19.747Z,3.90
2022-11-25T04:00:46.161Z,3.87
2022-11-25T04:03:12.512Z,3.97
2022-11-25T04:05:39.162Z,3.27
2022-11-25T04:08:07.214Z,2.97
2022-11-25T04:10:34.878Z,3.70
2022-11-25T04:13:01.781Z,3.87
2022-11-25T04:15:35.148Z,3.80
2022-11-25T04:18:01.565Z,4.30
2022-11-25T04:20:28.135Z,3.30
2022-11-25T04:23:02.598Z,3.53
2022-11-25T04:25:29.051Z,4.33
2022-11-25T04:27:55.599Z,3.03
2022-11-25T04:30:28.234Z,4.03
2022-11-25T04:32:55.012Z,4.47
2022-11-25T04:35:21.917Z,3.63
2022-11-25T04:37:52.536Z,3.83
2022-11-25T04:40:19.014Z,3.93
2022-11-25T04:42:50.555Z,3.60
2022-11-25T04:45:23.991Z,3.60
2022-11-25T04:47:52.518Z,3.63
2022-11-25T04:50:21.329Z,3.43
2022-11-25T04:53:00.524Z,3.30
2022-11-25T04:55:27.231Z,3.57
2022-11-25T04:57:53.652Z,3.90
2022-11-25T05:00:20.759Z,4.40
2022-11-25T05:02:48.203Z,4.17
2022-11-25T05:05:18.798Z,3.23
2022-11-25T05:07:45.201Z,4.50
2022-11-25T05:10:12.728Z,4.63
2022-11-25T05:12:43.667Z,4.00
2022-11-25T05:15:15.359Z,4.43
2022-11-25T05:17:44.506Z,4.53
2022-11-25T05:20:11.290Z,5.37
2022-11-25T05:22:37.639Z,5.13
2022-11-25T05:25:06.231Z,3.77
2022-11-25T05:27:36.227Z,4.27
2022-11-25T05:30:08.223Z,3.30
2022-11-25T05:32:34.580Z,4.83
2022-11-25T05:35:05.215Z,4.53
2022-11-25T05:37:31.830Z,4.67
2022-11-25T05:40:05.456Z,5.17
2022-11-25T05:42:52.297Z,4.60
2022-11-25T05:45:19.721Z,4.60
2022-11-25T05:47:46.128Z,4.53
2022-11-25T05:50:17.095Z,5.17
2022-11-25T05:53:00.958Z,4.77
2022-11-25T05:55:27.980Z,4.53
2022-11-25T05:57:55.033Z,4.90
2022-11-25T06:00:26.370Z,4.57
2022-11-25T06:02:53.770Z,5.07
2022-11-25T06:05:21.359Z,5.37
2022-11-25T06:07:48.008Z,5.90
2022-11-25T06:10:15.427Z,5.43
2022-11-25T06:12:42.613Z,5.80
2022-11-25T06:15:09.787Z,5.20
2022-11-25T06:17:37.691Z,4.63
2022-11-25T06:20:10.883Z,5.23
2022-11-25T06:22:37.660Z,4.93
2022-11-25T06:25:04.953Z,4.57
2022-11-25T06:27:56.859Z,4.87
2022-11-25T06:30:21.212Z,4.90
2022-11-25T06:33:00.768Z,5.93
2022-11-25T06:35:27.192Z,5.77
2022-11-25T06:37:59.558Z,4.87
2022-11-25T06:40:25.979Z,4.97
2022-11-25T06:42:52.294Z,5.17
2022-11-25T06:45:18.592Z,4.83
2022-11-25T06:47:44.899Z,6.07
2022-11-25T06:50:11.626Z,5.07
2022-11-25T06:52:37.945Z,5.13
2022-11-25T06:55:04.606Z,5.33
2022-11-25T06:57:30.922Z,5.77
2022-11-25T06:59:57.218Z,5.73
2022-11-25T07:02:23.690Z,6.70
2022-11-25T07:04:50.021Z,6.47
2022-11-25T07:07:16.390Z,5.67
2022-11-25T07:09:42.775Z,7.47
2022-11-25T07:12:09.187Z,5.17
2022-11-25T07:14:35.792Z,4.77
2022-11-25T07:17:04.224Z,4.30
2022-11-25T07:19:35.614Z,4.73
2022-11-25T07:22:02.095Z,5.03
2022-11-25T07:24:28.399Z,4.67
2022-11-25T07:26:54.720Z,5.37
2022-11-25T07:29:51.673Z,5.27
2022-11-25T07:32:10.690Z,3.77
2022-11-25T07:34:37.911Z,5.00
2022-11-25T07:37:04.500Z,5.10
2022-11-25T07:39:30.866Z,5.70
2022-11-25T07:41:57.248Z,5.00
2022-11-25T07:44:23.576Z,5.93
2022-11-25T07:46:53.010Z,6.37
2022-11-25T07:49:24.737Z,5.80
2022-11-25T07:51:56.754Z,5.27
2022-11-25T07:54:24.329Z,5.67
2022-11-25T07:56:51.301Z,6.20
2022-11-25T07:59:20.152Z,4.77
2022-11-25T08:01:48.569Z,5.00
2022-11-25T08:04:20.226Z,5.00
2022-11-25T08:06:49.898Z,4.97
2022-11-25T08:09:22.270Z,4.97
2022-11-25T08:11:49.080Z,4.63
2022-11-25T08:14:16.159Z,5.40
2022-11-25T08:16:42.667Z,4.90
2022-11-25T08:19:14.023Z,5.43
2022-11-25T08:21:40.904Z,5.23
2022-11-25T08:24:07.456Z,5.17
2022-11-25T08:26:37.383Z,5.50
2022-11-25T08:29:06.254Z,5.47
2022-11-25T08:31:37.785Z,5.33
2022-11-25T08:34:06.169Z,4.97
2022-11-25T08:36:33.952Z,5.53
2022-11-25T08:39:01.869Z,4.97
2022-11-25T08:41:32.516Z,4.50
2022-11-25T08:44:01.264Z,4.03
2022-11-25T08:46:30.932Z,4.13
2022-11-25T08:48:57.370Z,4.20
2022-11-25T08:51:28.123Z,4.20
2022-11-25T08:53:55.480Z,4.80
2022-11-25T08:56:26.219Z,4.77
2022-11-25T08:58:54.206Z,4.60
2022-11-25T09:01:22.432Z,4.40
2022-11-25T09:03:50.912Z,3.90
2022-11-25T09:06:18.791Z,4.07
2022-11-25T09:08:45.840Z,3.67
2022-11-25T09:11:12.914Z,4.50
2022-11-25T09:13:39.359Z,4.17
2022-11-25T09:16:06.554Z,3.13
2022-11-25T09:18:33.084Z,4.23
2022-11-25T09:20:59.775Z,4.17
2022-11-25T09:23:27.029Z,3.90
2022-11-25T09:25:58.039Z,3.43
2022-11-25T09:28:26.016Z,3.77
2022-11-25T09:30:52.973Z,4.07
2022-11-25T09:33:20.415Z,3.27
2022-11-25T09:35:48.433Z,3.73
2022-11-25T09:38:14.748Z,5.50
2022-11-25T09:41:37.690Z,3.57
2022-11-25T09:44:35.093Z,3.97
2022-11-25T09:47:14.673Z,3.77
2022-11-25T09:49:54.791Z,4.60
2022-11-25T09:52:44.478Z,4.33
2022-11-25T09:55:19.541Z,5.07
2022-11-25T09:58:26.030Z,4.50
2022-11-25T10:00:53.297Z,4.67
2022-11-25T10:03:41.050Z,4.43
2022-11-25T10:06:23.605Z,4.50
2022-11-25T10:08:58.187Z,5.80
2022-11-25T10:11:46.653Z,4.93
2022-11-25T10:14:25.984Z,4.57
2022-11-25T10:17:05.576Z,5.53
2022-11-25T10:19:56.788Z,5.33
2022-11-25T10:22:34.987Z,6.00
2022-11-25T10:25:23.459Z,5.83
2022-11-25T10:27:49.850Z,6.43
2022-11-25T10:30:20.505Z,6.50
2022-11-25T10:32:59.222Z,6.67
2022-11-25T10:35:35.623Z,5.77
2022-11-25T10:38:05.514Z,6.13
2022-11-25T10:40:31.969Z,6.77
2022-11-25T10:43:00.266Z,6.00
2022-11-25T10:45:33.275Z,6.97
2022-11-25T10:48:30.992Z,6.13
2022-11-25T10:51:19.117Z,5.97
2022-11-25T10:54:34.628Z,6.20
2022-11-25T10:57:03.650Z,7.03
2022-11-25T10:59:36.179Z,5.67
2022-11-25T11:02:19.413Z,7.23
2022-11-25T11:05:16.123Z,5.47
2022-11-25T11:07:45.039Z,7.40
2022-11-25T11:10:14.459Z,8.53
2022-11-25T11:12:58.446Z,6.27
2022-11-25T11:15:30.472Z,5.10
2022-11-25T11:18:00.553Z,5.33
2022-11-25T11:20:30.162Z,4.77
2022-11-25T11:23:10.174Z,4.90
2022-11-25T11:25:39.376Z,5.13
2022-11-25T11:28:38.503Z,5.13
2022-11-25T11:31:25.385Z,5.17
2022-11-25T11:34:11.177Z,5.40
2022-11-25T11:37:01.127Z,6.30
2022-11-25T11:39:59.886Z,6.47
2022-11-25T11:42:41.467Z,6.47
2022-11-25T11:45:25.774Z,5.57
2022-11-25T11:48:11.306Z,5.10
2022-11-25T11:50:46.827Z,4.93
2022-11-25T11:53:34.394Z,6.70
2022-11-25T11:56:41.663Z,5.17
2022-11-25T11:59:52.510Z,5.37
2022-11-25T12:02:22.127Z,4.97
2022-11-25T12:05:04.651Z,5.27
2022-11-25T12:08:08.154Z,5.17
2022-11-25T12:11:18.950Z,5.30
2022-11-25T12:14:01.004Z,4.63
2022-11-25T12:16:36.204Z,5.73
2022-11-25T12:19:19.328Z,4.67
2022-11-25T12:22:04.122Z,6.03
2022-11-25T12:24:51.099Z,5.30
2022-11-25T12:27:22.844Z,5.57
2022-11-25T12:30:07.006Z,5.47
2022-11-25T12:33:07.120Z,4.93
2022-11-25T12:35:58.501Z,5.10
2022-11-25T12:38:39.605Z,4.93
2022-11-25T12:41:39.675Z,5.10
2022-11-25T12:44:17.237Z,5.53
2022-11-25T12:46:47.820Z,4.60
2022-11-25T12:49:20.121Z,5.50
2022-11-25T12:51:56.154Z,5.33
2022-11-25T12:54:47.880Z,4.83
2022-11-25T12:57:41.033Z,5.43
2022-11-25T13:00:42.239Z,5.83
2022-11-25T13:03:14.061Z,4.67
2022-11-25T13:05:49.904Z,5.40
2022-11-25T13:08:27.990Z,4.97
2022-11-25T13:11:07.698Z,4.27
2022-11-25T13:13:53.577Z,4.57
2022-11-25T13:16:21.392Z,4.13
2022-11-25T13:18:48.646Z,3.40
2022-11-25T13:21:16.712Z,4.23
2022-11-25T13:23:49.947Z,4.03
2022-11-25T13:26:28.560Z,4.00
2022-11-25T13:28:56.182Z,4.30
2022-11-25T13:31:25.408Z,4.07
2022-11-25T13:34:02.893Z,3.90
2022-11-25T13:36:53.053Z,4.27
2022-11-25T13:39:37.212Z,3.80
2022-11-25T13:42:25.739Z,3.83
2022-11-25T13:44:54.670Z,3.90
2022-11-25T13:47:38.675Z,4.40
2022-11-25T13:50:24.527Z,3.80
2022-11-25T13:53:03.195Z,3.90
2022-11-25T13:55:36.307Z,3.87
2022-11-25T13:58:24.499Z,3.30
2022-11-25T14:01:02.394Z,4.50
2022-11-25T14:03:28.706Z,4.40
2022-11-25T14:06:16.286Z,4.93
2022-11-25T14:08:59.870Z,3.60
2022-11-25T14:11:41.155Z,3.50
2022-11-25T14:14:27.386Z,4.23
2022-11-25T14:17:31.100Z,4.07
2022-11-25T14:20:25.385Z,4.90
2022-11-25T14:23:41.756Z,4.00
2022-11-25T14:26:26.829Z,5.07
2022-11-25T14:29:17.079Z,4.13
2022-11-25T14:31:55.560Z,4.37
2022-11-25T14:34:29.575Z,4.13
2022-11-25T14:37:13.671Z,4.97
2022-11-25T14:40:03.864Z,4.30
2022-11-25T14:42:37.238Z,4.17
2022-11-25T14:45:19.023Z,4.77
2022-11-25T14:47:45.801Z,5.07
2022-11-25T14:53:06.799Z,5.27
2022-11-25T14:55:33.135Z,5.17
2022-11-25T14:57:59.584Z,5.00
2022-11-25T15:00:26.306Z,4.53
2022-11-25T15:02:58.777Z,4.60
2022-11-25T15:05:39.400Z,4.80
2022-11-25T15:08:17.728Z,5.20
2022-11-25T15:10:57.944Z,4.83
2022-11-25T15:13:32.615Z,5.37
2022-11-25T15:16:07.978Z,6.57
2022-11-25T15:18:35.514Z,4.60
2022-11-25T15:21:02.406Z,5.07
2022-11-25T15:23:34.428Z,4.47
2022-11-25T15:26:02.143Z,4.43
2022-11-25T15:28:38.704Z,4.90
2022-11-25T15:31:16.255Z,5.00
2022-11-25T15:33:44.678Z,4.90
2022-11-25T15:36:11.333Z,5.00
2022-11-25T15:38:43.379Z,4.00
2022-11-25T15:41:15.552Z,5.17
2022-11-25T15:43:46.966Z,5.00
2022-11-25T15:46:13.456Z,5.10
2022-11-25T15:48:46.259Z,5.13
2022-11-25T15:51:32.919Z,5.00
2022-11-25T15:54:15.148Z,5.20
2022-11-25T15:56:56.959Z,5.53
2022-11-25T15:59:58.512Z,6.30
2022-11-25T16:02:43.185Z,4.73
2022-11-25T16:05:12.430Z,5.03
2022-11-25T16:07:51.152Z,4.30
2022-11-25T16:10:33.100Z,5.03
2022-11-25T16:13:22.382Z,3.50
2022-11-25T16:15:52.273Z,4.40
2022-11-25T16:18:41.800Z,4.23
2022-11-25T16:21:13.465Z,5.10
2022-11-25T16:23:43.691Z,4.40
2022-11-25T16:26:12.734Z,5.33
2022-11-25T16:28:41.259Z,5.33
2022-11-25T16:31:15.231Z,5.37
2022-11-25T16:33:41.696Z,6.07
2022-11-25T16:36:09.765Z,4.67
2022-11-25T16:38:36.220Z,4.90
2022-11-25T16:41:11.415Z,5.03
2022-11-25T16:43:41.087Z,4.80
2022-11-25T16:46:07.547Z,5.17
2022-11-25T16:48:33.999Z,6.03
2022-11-25T16:51:00.511Z,5.03
2022-11-25T16:53:27.014Z,4.07
2022-11-25T16:55:53.347Z,4.97
2022-11-25T16:58:22.675Z,4.40
2022-11-25T17:00:54.671Z,5.30
2022-11-25T17:03:23.928Z,5.13
2022-11-25T17:05:51.060Z,4.47
2022-11-25T17:08:17.427Z,4.50
2022-11-25T17:10:44.619Z,5.10
2022-11-25T17:13:23.094Z,4.73
2022-11-25T17:15:49.907Z,4.03
2022-11-25T17:18:18.261Z,4.47
2022-11-25T17:20:47.329Z,5.13
2022-11-25T17:23:16.645Z,4.87
2022-11-25T17:25:46.795Z,4.53
2022-11-25T17:28:17.229Z,4.90
2022-11-25T17:30:44.717Z,4.23
2022-11-25T17:33:15.829Z,5.90
2022-11-25T17:35:42.904Z,6.73
2022-11-25T17:38:16.407Z,5.60
2022-11-25T17:40:43.482Z,5.07
2022-11-25T17:43:18.312Z,5.73
2022-11-25T17:45:46.233Z,5.57
2022-11-25T17:48:14.956Z,5.30
2022-11-25T17:50:41.979Z,5.83
2022-11-25T17:53:09.344Z,5.83
2022-11-25T17:55:37.262Z,5.70
2022-11-25T17:58:04.675Z,6.60
2022-11-25T18:00:32.995Z,7.03
2022-11-25T18:02:59.449Z,7.13
2022-11-25T18:05:26.732Z,7.93
2022-11-25T18:07:53.365Z,6.83
2022-11-25T18:10:24.185Z,6.57
2022-11-25T18:12:52.932Z,5.77
2022-11-25T18:15:23.146Z,6.90
2022-11-25T18:17:51.559Z,7.83
2022-11-25T18:20:24.021Z,8.13
2022-11-25T18:22:51.832Z,7.67
2022-11-25T18:25:28.155Z,7.20
2022-11-25T18:27:56.437Z,7.67
2022-11-25T18:30:26.259Z,7.03
2022-11-25T18:32:52.924Z,6.97
2022-11-25T18:35:25.437Z,6.93
2022-11-25T18:37:51.960Z,6.83
2022-11-25T18:40:18.381Z,7.60
2022-11-25T18:42:48.809Z,7.20
2022-11-25T18:45:20.898Z,8.43
2022-11-25T18:47:47.475Z,6.63
2022-11-25T18:50:18.340Z,6.80
2022-11-25T18:52:45.219Z,6.80
2022-11-25T18:55:13.376Z,7.20
2022-11-25T18:57:41.564Z,7.50
2022-11-25T19:00:41.130Z,6.40
2022-11-25T19:02:59.464Z,8.70
2022-11-25T19:05:29.762Z,7.30
2022-11-25T19:07:56.872Z,7.50
2022-11-25T19:10:26.808Z,7.10
2022-11-25T19:12:57.414Z,6.60
2022-11-25T19:15:25.495Z,7.53
2022-11-25T19:18:00.434Z,7.87
2022-11-25T19:20:28.280Z,7.90
2022-11-25T19:23:00.121Z,9.77
2022-11-25T19:25:27.108Z,8.27
2022-11-25T19:27:57.291Z,8.80
2022-11-25T19:30:26.599Z,8.17
2022-11-25T19:32:56.365Z,8.30
2022-11-25T19:35:27.533Z,9.17
2022-11-25T19:37:53.895Z,7.67
2022-11-25T19:40:22.205Z,7.00
2022-11-25T19:42:48.675Z,7.87
2022-11-25T19:45:20.373Z,8.10
2022-11-25T19:47:49.968Z,6.90
2022-11-25T19:50:22.960Z,7.43
2022-11-25T19:52:49.815Z,7.40
2022-11-25T19:55:21.636Z,7.70
2022-11-25T19:57:48.531Z,7.47
2022-11-25T20:00:18.000Z,8.47
2022-11-25T20:02:46.116Z,8.13
2022-11-25T20:05:19.511Z,7.77
2022-11-25T20:07:47.099Z,8.40
2022-11-25T20:10:22.471Z,7.53
2022-11-25T20:12:49.539Z,8.37
2022-11-25T20:15:16.127Z,8.10
2022-11-25T20:17:46.113Z,7.97
2022-11-25T20:20:17.766Z,8.43
2022-11-25T20:23:08.462Z,8.90
2022-11-25T20:25:41.383Z,8.73
2022-11-25T20:28:20.681Z,8.23
2022-11-25T20:30:48.616Z,9.87
2022-11-25T20:33:17.726Z,8.73
2022-11-25T20:35:50.488Z,10.07
2022-11-25T20:38:21.190Z,8.70
2022-11-25T20:40:51.636Z,9.23
2022-11-25T20:43:27.084Z,10.00
2022-11-25T20:45:54.044Z,9.90
2022-11-25T20:48:20.463Z,9.73
2022-11-25T20:50:47.216Z,9.70
2022-11-25T20:53:15.805Z,9.60
2022-11-25T20:55:43.341Z,11.77
2022-11-25T20:58:21.320Z,9.60
2022-11-25T21:00:50.697Z,10.10
2022-11-25T21:03:20.843Z,10.60
2022-11-25T21:05:50.196Z,10.50
2022-11-25T21:08:22.471Z,10.60
2022-11-25T21:10:51.743Z,11.63
2022-11-25T21:13:21.206Z,12.07
2022-11-25T21:15:49.303Z,12.30
2022-11-25T21:18:16.260Z,13.90
2022-11-25T21:20:43.150Z,12.80
2022-11-25T21:23:25.124Z,12.97
2022-11-25T21:25:51.578Z,13.07
2022-11-25T21:28:23.064Z,14.30
2022-11-25T21:30:49.731Z,12.00
2022-11-25T21:33:16.719Z,12.17
2022-11-25T21:35:47.787Z,12.13
2022-11-25T21:38:18.173Z,11.50
2022-11-25T21:40:47.262Z,13.47
2022-11-25T21:43:21.781Z,12.60
2022-11-25T21:45:49.977Z,12.53
2022-11-25T21:48:21.628Z,11.97
2022-11-25T21:50:48.358Z,11.03
2022-11-25T21:53:14.852Z,11.33
2022-11-25T21:55:42.081Z,10.93
2022-11-25T21:58:34.716Z,12.03
2022-11-25T22:01:01.772Z,11.50
2022-11-25T22:03:30.836Z,12.90
2022-11-25T22:05:57.267Z,12.50
2022-11-25T22:08:23.877Z,12.00
2022-11-25T22:10:52.663Z,11.93
2022-11-25T22:13:22.336Z,11.23
2022-11-25T22:15:53.857Z,11.80
2022-11-25T22:18:27.771Z,12.63
2022-11-25T22:20:54.553Z,11.87
2022-11-25T22:23:21.630Z,13.07
2022-11-25T22:25:49.526Z,11.57
2022-11-25T22:28:19.151Z,13.73
2022-11-25T22:30:49.838Z,12.07
2022-11-25T22:33:17.109Z,12.33
2022-11-25T22:35:43.434Z,13.60
2022-11-25T22:38:15.773Z,12.40
2022-11-25T22:40:49.380Z,12.00
2022-11-25T22:43:19.712Z,13.57
2022-11-25T22:45:46.522Z,12.43
2022-11-25T22:48:16.975Z,13.17
2022-11-25T22:50:45.520Z,13.50
2022-11-25T22:53:17.891Z,12.77
2022-11-25T22:55:45.555Z,13.63
2022-11-25T22:58:13.946Z,12.40
2022-11-25T23:00:44.769Z,12.37
2022-11-25T23:03:33.778Z,12.30
2022-11-25T23:06:01.664Z,13.00
2022-11-25T23:08:31.495Z,13.87
2022-11-25T23:10:58.712Z,13.90
2022-11-25T23:13:25.597Z,13.80
2022-11-25T23:16:00.522Z,15.30
2022-11-25T23:18:40.450Z,15.03
2022-11-25T23:21:16.306Z,15.30
2022-11-25T23:23:42.803Z,14.47
2022-11-25T23:26:10.999Z,14.40
2022-11-25T23:28:37.316Z,15.87
2022-11-25T23:31:04.045Z,13.63
2022-11-25T23:33:41.303Z,15.53
2022-11-25T23:36:15.303Z,15.50
2022-11-25T23:38:44.524Z,14.27
2022-11-25T23:41:21.099Z,14.27
2022-11-25T23:43:47.740Z,13.70
2022-11-25T23:46:16.534Z,14.10
2022-11-25T23:48:47.272Z,13.13
2022-11-25T23:51:13.628Z,14.80
2022-11-25T23:53:40.935Z,14.77
2022-11-25T23:56:07.497Z,15.90
2022-11-25T23:58:33.880Z,14.00
